Startpagina
METAR-TAF:

METAR-TAF

Vliegvelden :

Bevekom, België

Vliegbasis Bevekom

breedte: 50-45N, lengte: 004-46E, hoogte: 105 m

Actueel weer

Dit bericht is 38 minuten geleden gemaakt, om 10:25 UTC
Wind 9 kt uit het oosten
Temperatuur 23°C
Vochtigheid 50%
Druk 1021 hPa
Zicht 10 km of meer

METAR: EBBE 261025Z AUTO 10009KT 9999 NCD 23/12 Q1021 BLU

Tijdstip: 13:03 (11:03 UTC)

Verwachting

Dit bericht is 19 uur en het 18 minuten geleden gemaakt, om 15:45 UTC
Verwachting geldig van 25 om 19 UTC tot 26 om 07 UTC
Wind 7 kt uit het noordnoordoosten
Zicht 10 km of meer
Onbewolkt

TAF: EBBE 251545Z 2519/2607 03007KT 9999 SKC

Waarnemingen en weersverwachtingen van meer dan 4000 vliegvelden (METAR en TAF).

De beschikbare stations zijn de gele en rode punten op de kaart.

Ga met uw muis naar het station om de naam te zien.

Klik dan om waarnemingen en weersverwachtingen te zien.

kaart wijzigen: klik op de groene knoppen met een zwart kruis om in te zoomen, op de groene knop met een streepje om uit te zoomen of op de groene pijlen voor aangrenzende kaarten.


METAR-TAF: